West Springfield, Massachusetts
Current Conditions -  °F | °C
As of 5:53 AM on Sunday 21 Dec 2014 (Local Time) from KBAF Reporting Station
Light Snow Light Snow  
Wind Chill: 24°   Ceiling: 2300
Heat Index: 31°   Visibility: 2mi
Dew Point: 28°   Wind: 7mph
Humidity: 89%   Direction: 360°N
Pressure: 30.28"   Gusts: NA
Location:  42.11°N, 72.62°W
Report Text: KBAF 211053Z 36006KT 2SM -SN BR FEW007 OVC023 M01/M02 A3028 RMK AO2 SLP259 P0000 T10061022
Loading
Personal Weather Stations






























Interactive Weather Map New forecast layout! Learn more

10-Day Weather Forecast

Advertisements
Track Severe Weather on mobile